sensor_id;sensor_type;location;lat;lon;timestamp;temperature;humidity
1704;DHT22;849;48.780;9.216;2023-01-01T00:00:22;16.50;99.90
1704;DHT22;849;48.780;9.216;2023-01-01T00:02:48;16.40;99.90
1704;DHT22;849;48.780;9.216;2023-01-01T00:05:13;16.30;99.90
1704;DHT22;849;48.780;9.216;2023-01-01T00:07:39;16.30;99.90
1704;DHT22;849;48.780;9.216;2023-01-01T00:10:05;16.40;99.90
1704;DHT22;849;48.780;9.216;2023-01-01T00:12:49;16.40;99.90
1704;DHT22;849;48.780;9.216;2023-01-01T00:15:14;16.50;99.90
1704;DHT22;849;48.780;9.216;2023-01-01T00:17:40;16.50;99.90
1704;DHT22;849;48.780;9.216;2023-01-01T00:20:06;16.50;99.90
1704;DHT22;849;48.780;9.216;2023-01-01T00:22:32;16.60;99.90
1704;DHT22;849;48.780;9.216;2023-01-01T00:24:58;16.50;99.90
1704;DHT22;849;48.780;9.216;2023-01-01T00:27:23;16.60;99.90
1704;DHT22;849;48.780;9.216;2023-01-01T00:29:49;16.60;99.90
1704;DHT22;849;48.780;9.216;2023-01-01T00:32:14;16.50;99.90
1704;DHT22;849;48.780;9.216;2023-01-01T00:34:40;16.50;99.90
1704;DHT22;849;48.780;9.216;2023-01-01T00:37:05;16.40;99.90
1704;DHT22;849;48.780;9.216;2023-01-01T00:39:31;16.50;99.90
1704;DHT22;849;48.780;9.216;2023-01-01T00:41:57;16.50;99.90
1704;DHT22;849;48.780;9.216;2023-01-01T00:44:22;16.50;99.90
1704;DHT22;849;48.780;9.216;2023-01-01T00:46:48;16.50;99.90
1704;DHT22;849;48.780;9.216;2023-01-01T00:49:13;16.50;99.90
1704;DHT22;849;48.780;9.216;2023-01-01T00:51:39;16.60;99.90
1704;DHT22;849;48.780;9.216;2023-01-01T00:54:05;16.60;99.90
1704;DHT22;849;48.780;9.216;2023-01-01T00:56:30;16.60;99.90
1704;DHT22;849;48.780;9.216;2023-01-01T00:58:56;16.60;99.90
1704;DHT22;849;48.780;9.216;2023-01-01T01:01:22;16.50;99.90
1704;DHT22;849;48.780;9.216;2023-01-01T01:03:48;16.50;99.90
1704;DHT22;849;48.780;9.216;2023-01-01T01:06:15;16.50;99.90
1704;DHT22;849;48.780;9.216;2023-01-01T01:08:44;16.50;99.90
1704;DHT22;849;48.780;9.216;2023-01-01T01:13:40;16.60;99.90
1704;DHT22;849;48.780;9.216;2023-01-01T01:16:08;16.50;99.90
1704;DHT22;849;48.780;9.216;2023-01-01T01:18:34;16.60;99.90
1704;DHT22;849;48.780;9.216;2023-01-01T01:21:00;16.50;99.90
1704;DHT22;849;48.780;9.216;2023-01-01T01:23:25;16.50;99.90
1704;DHT22;849;48.780;9.216;2023-01-01T01:25:51;16.30;99.90
1704;DHT22;849;48.780;9.216;2023-01-01T01:28:16;16.20;99.90
1704;DHT22;849;48.780;9.216;2023-01-01T01:30:42;15.80;99.90
1704;DHT22;849;48.780;9.216;2023-01-01T01:33:08;15.70;99.90
1704;DHT22;849;48.780;9.216;2023-01-01T01:35:33;15.50;99.90
1704;DHT22;849;48.780;9.216;2023-01-01T01:37:59;15.60;99.90
1704;DHT22;849;48.780;9.216;2023-01-01T01:40:25;15.60;99.90
1704;DHT22;849;48.780;9.216;2023-01-01T01:42:50;15.40;99.90
1704;DHT22;849;48.780;9.216;2023-01-01T01:45:16;15.20;99.90
1704;DHT22;849;48.780;9.216;2023-01-01T01:47:57;15.00;99.90
1704;DHT22;849;48.780;9.216;2023-01-01T01:50:37;15.00;99.90
1704;DHT22;849;48.780;9.216;2023-01-01T01:53:15;15.10;99.90
1704;DHT22;849;48.780;9.216;2023-01-01T01:55:47;15.00;99.90
1704;DHT22;849;48.780;9.216;2023-01-01T01:58:13;14.90;99.90
1704;DHT22;849;48.780;9.216;2023-01-01T02:00:40;14.90;99.90
1704;DHT22;849;48.780;9.216;2023-01-01T02:03:08;14.90;99.90
1704;DHT22;849;48.780;9.216;2023-01-01T02:05:35;14.80;99.90
1704;DHT22;849;48.780;9.216;2023-01-01T02:08:03;14.80;99.90
1704;DHT22;849;48.780;9.216;2023-01-01T02:10:29;14.70;99.90
1704;DHT22;849;48.780;9.216;2023-01-01T02:12:55;14.70;99.90
1704;DHT22;849;48.780;9.216;2023-01-01T02:15:24;14.50;99.90
1704;DHT22;849;48.780;9.216;2023-01-01T02:18:01;14.40;99.90
1704;DHT22;849;48.780;9.216;2023-01-01T02:21:33;14.30;99.90
1704;DHT22;849;48.780;9.216;2023-01-01T02:32:11;14.00;99.90
1704;DHT22;849;48.780;9.216;2023-01-01T02:34:40;13.90;99.90
1704;DHT22;849;48.780;9.216;2023-01-01T02:37:09;13.90;99.90
1704;DHT22;849;48.780;9.216;2023-01-01T02:39:44;14.00;99.90
1704;DHT22;849;48.780;9.216;2023-01-01T02:42:10;13.90;99.90
1704;DHT22;849;48.780;9.216;2023-01-01T02:44:39;13.80;99.90
1704;DHT22;849;48.780;9.216;2023-01-01T02:47:15;13.60;99.90
1704;DHT22;849;48.780;9.216;2023-01-01T02:49:49;13.60;99.90
1704;DHT22;849;48.780;9.216;2023-01-01T02:52:45;13.50;99.90
1704;DHT22;849;48.780;9.216;2023-01-01T02:55:26;13.70;99.90
1704;DHT22;849;48.780;9.216;2023-01-01T02:58:01;13.80;99.90
1704;DHT22;849;48.780;9.216;2023-01-01T03:00:50;14.00;99.90
1704;DHT22;849;48.780;9.216;2023-01-01T03:04:19;14.10;99.90
1704;DHT22;849;48.780;9.216;2023-01-01T03:06:41;14.30;99.90
1704;DHT22;849;48.780;9.216;2023-01-01T03:09:22;14.40;99.90
1704;DHT22;849;48.780;9.216;2023-01-01T03:11:56;14.50;99.90
1704;DHT22;849;48.780;9.216;2023-01-01T03:14:45;14.70;99.90
1704;DHT22;849;48.780;9.216;2023-01-01T03:17:37;15.00;99.90
1704;DHT22;849;48.780;9.216;2023-01-01T03:20:10;15.00;99.90
1704;DHT22;849;48.780;9.216;2023-01-01T03:22:38;15.10;99.90
1704;DHT22;849;48.780;9.216;2023-01-01T03:25:15;15.10;99.90
1704;DHT22;849;48.780;9.216;2023-01-01T03:27:49;15.10;99.90
1704;DHT22;849;48.780;9.216;2023-01-01T03:30:18;15.00;99.90
1704;DHT22;849;48.780;9.216;2023-01-01T03:32:59;15.00;99.90
1704;DHT22;849;48.780;9.216;2023-01-01T03:35:49;15.00;99.90
1704;DHT22;849;48.780;9.216;2023-01-01T03:38:22;15.10;99.90
1704;DHT22;849;48.780;9.216;2023-01-01T03:41:01;15.20;99.90
1704;DHT22;849;48.780;9.216;2023-01-01T03:45:59;15.30;99.90
1704;DHT22;849;48.780;9.216;2023-01-01T03:48:26;15.20;99.90
1704;DHT22;849;48.780;9.216;2023-01-01T03:51:09;15.10;99.90
1704;DHT22;849;48.780;9.216;2023-01-01T03:53:41;15.10;99.90
1704;DHT22;849;48.780;9.216;2023-01-01T03:56:15;15.00;99.90
1704;DHT22;849;48.780;9.216;2023-01-01T03:58:51;15.00;99.90
1704;DHT22;849;48.780;9.216;2023-01-01T04:01:41;15.00;99.90
1704;DHT22;849;48.780;9.216;2023-01-01T04:04:09;15.00;99.90
1704;DHT22;849;48.780;9.216;2023-01-01T04:06:35;14.80;99.90
1704;DHT22;849;48.780;9.216;2023-01-01T04:09:02;14.80;99.90
1704;DHT22;849;48.780;9.216;2023-01-01T04:11:31;14.60;99.90
1704;DHT22;849;48.780;9.216;2023-01-01T04:16:55;14.50;99.90
1704;DHT22;849;48.780;9.216;2023-01-01T04:19:21;14.50;99.90
1704;DHT22;849;48.780;9.216;2023-01-01T04:21:47;14.50;99.90
1704;DHT22;849;48.780;9.216;2023-01-01T04:24:12;14.50;99.90
1704;DHT22;849;48.780;9.216;2023-01-01T04:26:39;14.50;99.90
1704;DHT22;849;48.780;9.216;2023-01-01T04:29:05;14.50;99.90
1704;DHT22;849;48.780;9.216;2023-01-01T04:31:30;14.60;99.90
1704;DHT22;849;48.780;9.216;2023-01-01T04:33:56;14.60;99.90
1704;DHT22;849;48.780;9.216;2023-01-01T04:36:22;14.60;99.90
1704;DHT22;849;48.780;9.216;2023-01-01T04:38:47;14.60;99.90
1704;DHT22;849;48.780;9.216;2023-01-01T04:41:13;14.60;99.90
1704;DHT22;849;48.780;9.216;2023-01-01T04:43:38;14.70;99.90
1704;DHT22;849;48.780;9.216;2023-01-01T04:46:04;14.90;99.90
1704;DHT22;849;48.780;9.216;2023-01-01T04:48:31;15.10;99.90
1704;DHT22;849;48.780;9.216;2023-01-01T04:51:01;15.20;99.90
1704;DHT22;849;48.780;9.216;2023-01-01T04:53:29;15.40;99.90
1704;DHT22;849;48.780;9.216;2023-01-01T04:55:55;15.30;99.90
1704;DHT22;849;48.780;9.216;2023-01-01T04:58:27;15.30;99.90
1704;DHT22;849;48.780;9.216;2023-01-01T05:00:53;15.30;99.90
1704;DHT22;849;48.780;9.216;2023-01-01T05:03:18;15.40;99.90
1704;DHT22;849;48.780;9.216;2023-01-01T05:05:44;15.40;99.90
1704;DHT22;849;48.780;9.216;2023-01-01T05:08:10;15.50;99.90
1704;DHT22;849;48.780;9.216;2023-01-01T05:10:35;15.60;99.90
1704;DHT22;849;48.780;9.216;2023-01-01T05:13:05;15.70;99.90
1704;DHT22;849;48.780;9.216;2023-01-01T05:15:34;15.80;99.90
1704;DHT22;849;48.780;9.216;2023-01-01T05:18:00;15.80;99.90
1704;DHT22;849;48.780;9.216;2023-01-01T05:20:26;15.90;99.90
1704;DHT22;849;48.780;9.216;2023-01-01T05:22:51;15.70;99.90
1704;DHT22;849;48.780;9.216;2023-01-01T05:25:17;15.70;99.90
1704;DHT22;849;48.780;9.216;2023-01-01T05:27:43;15.70;99.90
1704;DHT22;849;48.780;9.216;2023-01-01T05:30:09;15.80;99.90
1704;DHT22;849;48.780;9.216;2023-01-01T05:32:36;15.70;99.90
1704;DHT22;849;48.780;9.216;2023-01-01T05:35:02;15.50;99.90
1704;DHT22;849;48.780;9.216;2023-01-01T05:37:27;15.70;99.90
1704;DHT22;849;48.780;9.216;2023-01-01T05:39:53;15.50;99.90
1704;DHT22;849;48.780;9.216;2023-01-01T05:42:18;15.40;99.90
1704;DHT22;849;48.780;9.216;2023-01-01T05:44:44;15.50;99.90
1704;DHT22;849;48.780;9.216;2023-01-01T05:47:10;15.50;99.90
1704;DHT22;849;48.780;9.216;2023-01-01T05:49:36;15.60;99.90
1704;DHT22;849;48.780;9.216;2023-01-01T05:52:02;15.70;99.90
1704;DHT22;849;48.780;9.216;2023-01-01T05:54:28;15.80;99.90
1704;DHT22;849;48.780;9.216;2023-01-01T05:56:53;15.70;99.90
1704;DHT22;849;48.780;9.216;2023-01-01T05:59:19;15.60;99.90
1704;DHT22;849;48.780;9.216;2023-01-01T06:01:44;15.40;99.90
1704;DHT22;849;48.780;9.216;2023-01-01T06:04:10;15.50;99.90
1704;DHT22;849;48.780;9.216;2023-01-01T06:06:36;15.50;99.90
1704;DHT22;849;48.780;9.216;2023-01-01T06:09:03;15.50;99.90
1704;DHT22;849;48.780;9.216;2023-01-01T06:11:30;15.40;99.90
1704;DHT22;849;48.780;9.216;2023-01-01T06:13:57;15.30;99.90
1704;DHT22;849;48.780;9.216;2023-01-01T06:16:25;15.20;99.90
1704;DHT22;849;48.780;9.216;2023-01-01T06:18:51;15.30;99.90
1704;DHT22;849;48.780;9.216;2023-01-01T06:21:20;15.30;99.90
1704;DHT22;849;48.780;9.216;2023-01-01T06:23:46;15.20;99.90
1704;DHT22;849;48.780;9.216;2023-01-01T06:26:14;15.20;99.90
1704;DHT22;849;48.780;9.216;2023-01-01T06:28:40;15.30;99.90
1704;DHT22;849;48.780;9.216;2023-01-01T06:31:08;15.40;99.90
1704;DHT22;849;48.780;9.216;2023-01-01T06:33:34;15.40;99.90
1704;DHT22;849;48.780;9.216;2023-01-01T06:36:02;15.30;99.90
1704;DHT22;849;48.780;9.216;2023-01-01T06:38:34;15.20;99.90
1704;DHT22;849;48.780;9.216;2023-01-01T06:41:05;15.30;99.90
1704;DHT22;849;48.780;9.216;2023-01-01T06:43:33;15.30;99.90
1704;DHT22;849;48.780;9.216;2023-01-01T06:46:35;15.30;99.90
1704;DHT22;849;48.780;9.216;2023-01-01T06:49:10;15.30;99.90
1704;DHT22;849;48.780;9.216;2023-01-01T06:51:38;15.30;99.90
1704;DHT22;849;48.780;9.216;2023-01-01T06:54:05;15.40;99.90
1704;DHT22;849;48.780;9.216;2023-01-01T06:56:31;15.40;99.90
1704;DHT22;849;48.780;9.216;2023-01-01T06:58:57;15.40;99.90
1704;DHT22;849;48.780;9.216;2023-01-01T07:01:26;15.40;99.90
1704;DHT22;849;48.780;9.216;2023-01-01T07:03:54;15.30;99.90
1704;DHT22;849;48.780;9.216;2023-01-01T07:06:20;15.30;99.90
1704;DHT22;849;48.780;9.216;2023-01-01T07:08:46;15.40;99.90
1704;DHT22;849;48.780;9.216;2023-01-01T07:11:12;15.20;99.90
1704;DHT22;849;48.780;9.216;2023-01-01T07:13:37;15.30;99.90
1704;DHT22;849;48.780;9.216;2023-01-01T07:16:03;15.20;99.90
1704;DHT22;849;48.780;9.216;2023-01-01T07:18:30;15.30;99.90
1704;DHT22;849;48.780;9.216;2023-01-01T07:21:00;15.20;99.90
1704;DHT22;849;48.780;9.216;2023-01-01T07:23:28;15.20;99.90
1704;DHT22;849;48.780;9.216;2023-01-01T07:25:54;15.20;99.90
1704;DHT22;849;48.780;9.216;2023-01-01T07:28:21;15.20;99.90
1704;DHT22;849;48.780;9.216;2023-01-01T07:30:47;15.20;99.90
1704;DHT22;849;48.780;9.216;2023-01-01T07:33:16;15.30;99.90
1704;DHT22;849;48.780;9.216;2023-01-01T07:35:42;15.30;99.90
1704;DHT22;849;48.780;9.216;2023-01-01T07:38:09;15.30;99.90
1704;DHT22;849;48.780;9.216;2023-01-01T07:40:35;15.20;99.90
1704;DHT22;849;48.780;9.216;2023-01-01T07:43:00;15.20;99.90
1704;DHT22;849;48.780;9.216;2023-01-01T07:45:26;15.30;99.90
1704;DHT22;849;48.780;9.216;2023-01-01T07:47:56;15.40;99.90
1704;DHT22;849;48.780;9.216;2023-01-01T07:50:24;15.50;99.90
1704;DHT22;849;48.780;9.216;2023-01-01T07:52:53;15.50;99.90
1704;DHT22;849;48.780;9.216;2023-01-01T07:55:19;15.30;99.90
1704;DHT22;849;48.780;9.216;2023-01-01T07:57:45;15.30;99.90
1704;DHT22;849;48.780;9.216;2023-01-01T08:00:13;15.40;99.90
1704;DHT22;849;48.780;9.216;2023-01-01T08:02:39;15.40;99.90
1704;DHT22;849;48.780;9.216;2023-01-01T08:05:05;15.30;99.90
1704;DHT22;849;48.780;9.216;2023-01-01T08:07:31;15.40;99.90
1704;DHT22;849;48.780;9.216;2023-01-01T08:09:57;15.40;99.90
1704;DHT22;849;48.780;9.216;2023-01-01T08:12:23;15.40;99.90
1704;DHT22;849;48.780;9.216;2023-01-01T08:14:49;15.40;99.90
1704;DHT22;849;48.780;9.216;2023-01-01T08:17:15;15.40;99.90
1704;DHT22;849;48.780;9.216;2023-01-01T08:19:40;15.50;99.90
1704;DHT22;849;48.780;9.216;2023-01-01T08:22:06;15.50;99.90
1704;DHT22;849;48.780;9.216;2023-01-01T08:24:31;15.40;99.90
1704;DHT22;849;48.780;9.216;2023-01-01T08:26:57;15.20;99.90
1704;DHT22;849;48.780;9.216;2023-01-01T08:29:23;15.20;99.90
1704;DHT22;849;48.780;9.216;2023-01-01T08:31:48;15.10;99.90
1704;DHT22;849;48.780;9.216;2023-01-01T08:34:14;15.10;99.90
1704;DHT22;849;48.780;9.216;2023-01-01T08:36:39;15.00;99.90
1704;DHT22;849;48.780;9.216;2023-01-01T08:39:08;14.90;99.90
1704;DHT22;849;48.780;9.216;2023-01-01T08:41:33;14.80;99.90
1704;DHT22;849;48.780;9.216;2023-01-01T08:43:59;14.50;99.90
1704;DHT22;849;48.780;9.216;2023-01-01T08:46:25;14.50;99.90
1704;DHT22;849;48.780;9.216;2023-01-01T08:48:50;14.60;99.90
1704;DHT22;849;48.780;9.216;2023-01-01T08:51:16;14.70;99.90
1704;DHT22;849;48.780;9.216;2023-01-01T08:53:42;14.60;99.90
1704;DHT22;849;48.780;9.216;2023-01-01T08:56:09;14.50;99.90
1704;DHT22;849;48.780;9.216;2023-01-01T08:58:37;14.50;99.90
1704;DHT22;849;48.780;9.216;2023-01-01T09:01:04;14.50;99.90
1704;DHT22;849;48.780;9.216;2023-01-01T09:03:30;14.40;99.90
1704;DHT22;849;48.780;9.216;2023-01-01T09:05:56;14.20;99.90
1704;DHT22;849;48.780;9.216;2023-01-01T09:08:22;14.40;99.90
1704;DHT22;849;48.780;9.216;2023-01-01T09:10:48;14.40;99.90
1704;DHT22;849;48.780;9.216;2023-01-01T09:13:16;14.40;99.90
1704;DHT22;849;48.780;9.216;2023-01-01T09:15:42;14.40;99.90
1704;DHT22;849;48.780;9.216;2023-01-01T09:18:08;14.40;99.90
1704;DHT22;849;48.780;9.216;2023-01-01T09:20:35;14.30;99.90
1704;DHT22;849;48.780;9.216;2023-01-01T09:23:01;14.40;99.90
1704;DHT22;849;48.780;9.216;2023-01-01T09:25:26;14.40;99.90
1704;DHT22;849;48.780;9.216;2023-01-01T09:28:03;14.50;99.90
1704;DHT22;849;48.780;9.216;2023-01-01T09:30:29;14.60;99.90
1704;DHT22;849;48.780;9.216;2023-01-01T09:32:54;14.70;99.90
1704;DHT22;849;48.780;9.216;2023-01-01T09:35:20;14.90;99.90
1704;DHT22;849;48.780;9.216;2023-01-01T09:37:46;14.90;99.90
1704;DHT22;849;48.780;9.216;2023-01-01T09:40:28;14.90;99.90
1704;DHT22;849;48.780;9.216;2023-01-01T09:43:11;14.70;99.90
1704;DHT22;849;48.780;9.216;2023-01-01T09:46:26;14.90;99.90
1704;DHT22;849;48.780;9.216;2023-01-01T09:48:54;15.00;99.90
1704;DHT22;849;48.780;9.216;2023-01-01T09:51:23;14.90;99.90
1704;DHT22;849;48.780;9.216;2023-01-01T09:53:57;15.00;99.90
1704;DHT22;849;48.780;9.216;2023-01-01T09:56:26;15.10;99.90
1704;DHT22;849;48.780;9.216;2023-01-01T09:58:53;15.00;99.90
1704;DHT22;849;48.780;9.216;2023-01-01T10:02:05;15.10;99.90
1704;DHT22;849;48.780;9.216;2023-01-01T10:12:47;15.10;99.90
1704;DHT22;849;48.780;9.216;2023-01-01T10:15:21;15.10;99.90
1704;DHT22;849;48.780;9.216;2023-01-01T10:17:50;15.20;99.90
1704;DHT22;849;48.780;9.216;2023-01-01T10:22:51;15.40;99.90
1704;DHT22;849;48.780;9.216;2023-01-01T10:25:33;15.40;99.90
1704;DHT22;849;48.780;9.216;2023-01-01T10:30:45;15.40;99.90
1704;DHT22;849;48.780;9.216;2023-01-01T10:33:13;15.40;99.90
1704;DHT22;849;48.780;9.216;2023-01-01T10:35:51;15.60;99.90
1704;DHT22;849;48.780;9.216;2023-01-01T10:38:22;15.90;99.90
1704;DHT22;849;48.780;9.216;2023-01-01T10:40:50;16.00;99.90
1704;DHT22;849;48.780;9.216;2023-01-01T10:43:16;16.20;99.90
1704;DHT22;849;48.780;9.216;2023-01-01T10:45:51;16.30;99.90
1704;DHT22;849;48.780;9.216;2023-01-01T10:48:25;16.50;99.60
1704;DHT22;849;48.780;9.216;2023-01-01T10:55:56;16.60;98.80
1704;DHT22;849;48.780;9.216;2023-01-01T11:04:02;16.70;98.80
1704;DHT22;849;48.780;9.216;2023-01-01T11:06:38;16.80;98.80
1704;DHT22;849;48.780;9.216;2023-01-01T11:09:28;16.90;98.70
1704;DHT22;849;48.780;9.216;2023-01-01T11:12:00;16.90;97.90
1704;DHT22;849;48.780;9.216;2023-01-01T11:16:57;17.10;96.80
1704;DHT22;849;48.780;9.216;2023-01-01T11:19:30;17.10;96.30
1704;DHT22;849;48.780;9.216;2023-01-01T11:21:57;17.10;96.90
1704;DHT22;849;48.780;9.216;2023-01-01T11:24:28;17.30;95.60
1704;DHT22;849;48.780;9.216;2023-01-01T11:29:43;17.20;95.50
1704;DHT22;849;48.780;9.216;2023-01-01T11:32:19;17.00;96.10
1704;DHT22;849;48.780;9.216;2023-01-01T11:34:52;17.00;96.30
1704;DHT22;849;48.780;9.216;2023-01-01T11:37:29;17.30;96.30
1704;DHT22;849;48.780;9.216;2023-01-01T11:39:59;17.50;96.00
1704;DHT22;849;48.780;9.216;2023-01-01T11:42:31;17.50;96.60
1704;DHT22;849;48.780;9.216;2023-01-01T11:45:04;17.60;96.40
1704;DHT22;849;48.780;9.216;2023-01-01T11:47:35;17.60;96.00
1704;DHT22;849;48.780;9.216;2023-01-01T11:50:17;17.70;96.10
1704;DHT22;849;48.780;9.216;2023-01-01T11:52:45;17.70;95.40
1704;DHT22;849;48.780;9.216;2023-01-01T11:55:53;17.70;95.40
1704;DHT22;849;48.780;9.216;2023-01-01T11:58:39;17.50;95.70
1704;DHT22;849;48.780;9.216;2023-01-01T12:03:50;17.40;96.40
1704;DHT22;849;48.780;9.216;2023-01-01T12:06:35;17.40;96.20
1704;DHT22;849;48.780;9.216;2023-01-01T12:14:45;17.50;95.20
1704;DHT22;849;48.780;9.216;2023-01-01T12:17:32;17.70;94.60
1704;DHT22;849;48.780;9.216;2023-01-01T12:20:18;17.80;94.80
1704;DHT22;849;48.780;9.216;2023-01-01T12:22:48;17.70;94.30
1704;DHT22;849;48.780;9.216;2023-01-01T12:25:16;17.80;94.50
1704;DHT22;849;48.780;9.216;2023-01-01T12:28:01;17.80;94.30
1704;DHT22;849;48.780;9.216;2023-01-01T12:30:52;17.90;94.00
1704;DHT22;849;48.780;9.216;2023-01-01T12:42:00;17.60;91.30
1704;DHT22;849;48.780;9.216;2023-01-01T12:44:37;17.60;92.90
1704;DHT22;849;48.780;9.216;2023-01-01T12:50:10;17.60;91.90
1704;DHT22;849;48.780;9.216;2023-01-01T12:52:53;17.90;92.10
1704;DHT22;849;48.780;9.216;2023-01-01T12:58:13;18.00;92.80
1704;DHT22;849;48.780;9.216;2023-01-01T13:00:46;18.00;92.10
1704;DHT22;849;48.780;9.216;2023-01-01T13:03:18;18.00;92.10
1704;DHT22;849;48.780;9.216;2023-01-01T13:05:47;18.00;92.30
1704;DHT22;849;48.780;9.216;2023-01-01T13:08:14;17.80;91.70
1704;DHT22;849;48.780;9.216;2023-01-01T13:10:42;17.50;92.10
1704;DHT22;849;48.780;9.216;2023-01-01T13:13:11;17.50;93.10
1704;DHT22;849;48.780;9.216;2023-01-01T13:18:15;17.60;92.20
1704;DHT22;849;48.780;9.216;2023-01-01T13:20:45;17.40;91.90
1704;DHT22;849;48.780;9.216;2023-01-01T13:34:41;18.20;92.70
1704;DHT22;849;48.780;9.216;2023-01-01T13:40:03;18.30;94.30
1704;DHT22;849;48.780;9.216;2023-01-01T13:45:27;17.90;94.00
1704;DHT22;849;48.780;9.216;2023-01-01T13:51:02;17.80;93.00
1704;DHT22;849;48.780;9.216;2023-01-01T13:53:54;17.80;92.90
1704;DHT22;849;48.780;9.216;2023-01-01T13:59:43;18.00;91.80
1704;DHT22;849;48.780;9.216;2023-01-01T14:02:22;18.10;92.30
1704;DHT22;849;48.780;9.216;2023-01-01T14:04:53;18.10;92.80
1704;DHT22;849;48.780;9.216;2023-01-01T14:10:33;18.30;94.10
1704;DHT22;849;48.780;9.216;2023-01-01T14:15:39;18.10;95.40
1704;DHT22;849;48.780;9.216;2023-01-01T14:18:11;18.10;96.00
1704;DHT22;849;48.780;9.216;2023-01-01T14:20:43;18.10;96.30
1704;DHT22;849;48.780;9.216;2023-01-01T14:25:53;18.00;96.80
1704;DHT22;849;48.780;9.216;2023-01-01T14:28:28;17.80;97.50
1704;DHT22;849;48.780;9.216;2023-01-01T14:30:55;17.70;97.80
1704;DHT22;849;48.780;9.216;2023-01-01T14:33:25;17.70;98.00
1704;DHT22;849;48.780;9.216;2023-01-01T14:36:02;17.70;98.40
1704;DHT22;849;48.780;9.216;2023-01-01T14:38:30;17.70;98.80
1704;DHT22;849;48.780;9.216;2023-01-01T14:41:26;17.60;99.10
1704;DHT22;849;48.780;9.216;2023-01-01T14:43:56;17.50;99.00
1704;DHT22;849;48.780;9.216;2023-01-01T14:46:24;17.50;99.20
1704;DHT22;849;48.780;9.216;2023-01-01T14:48:56;17.40;99.40
1704;DHT22;849;48.780;9.216;2023-01-01T14:51:24;17.30;99.50
1704;DHT22;849;48.780;9.216;2023-01-01T14:53:52;17.30;99.80
1704;DHT22;849;48.780;9.216;2023-01-01T14:56:33;17.30;99.90
1704;DHT22;849;48.780;9.216;2023-01-01T15:01:34;17.10;99.90
1704;DHT22;849;48.780;9.216;2023-01-01T15:04:12;17.00;99.90
1704;DHT22;849;48.780;9.216;2023-01-01T15:06:40;17.00;99.90
1704;DHT22;849;48.780;9.216;2023-01-01T15:09:09;16.90;99.90
1704;DHT22;849;48.780;9.216;2023-01-01T15:11:37;16.90;99.90
1704;DHT22;849;48.780;9.216;2023-01-01T15:14:03;16.80;99.90
1704;DHT22;849;48.780;9.216;2023-01-01T15:16:29;16.80;99.90
1704;DHT22;849;48.780;9.216;2023-01-01T15:18:55;16.70;99.90
1704;DHT22;849;48.780;9.216;2023-01-01T15:21:37;16.60;99.90
1704;DHT22;849;48.780;9.216;2023-01-01T15:26:41;16.50;99.90
1704;DHT22;849;48.780;9.216;2023-01-01T15:29:13;16.40;99.90
1704;DHT22;849;48.780;9.216;2023-01-01T15:31:47;16.30;99.90
1704;DHT22;849;48.780;9.216;2023-01-01T15:36:52;16.10;99.90
1704;DHT22;849;48.780;9.216;2023-01-01T15:39:19;16.10;99.90
1704;DHT22;849;48.780;9.216;2023-01-01T15:41:50;16.00;99.90
1704;DHT22;849;48.780;9.216;2023-01-01T15:44:28;16.00;99.90
1704;DHT22;849;48.780;9.216;2023-01-01T15:47:12;15.90;99.90
1704;DHT22;849;48.780;9.216;2023-01-01T15:49:38;15.80;99.90
1704;DHT22;849;48.780;9.216;2023-01-01T15:52:13;15.80;99.90
1704;DHT22;849;48.780;9.216;2023-01-01T15:54:44;15.80;99.90
1704;DHT22;849;48.780;9.216;2023-01-01T15:57:16;15.80;99.90
1704;DHT22;849;48.780;9.216;2023-01-01T15:59:43;15.80;99.90
1704;DHT22;849;48.780;9.216;2023-01-01T16:02:14;15.70;99.90
1704;DHT22;849;48.780;9.216;2023-01-01T16:04:48;15.60;99.90
1704;DHT22;849;48.780;9.216;2023-01-01T16:07:20;15.50;99.90
1704;DHT22;849;48.780;9.216;2023-01-01T16:09:48;15.50;99.90
1704;DHT22;849;48.780;9.216;2023-01-01T16:12:14;15.30;99.90
1704;DHT22;849;48.780;9.216;2023-01-01T16:14:40;15.30;99.90
1704;DHT22;849;48.780;9.216;2023-01-01T16:17:13;15.20;99.90
1704;DHT22;849;48.780;9.216;2023-01-01T16:19:39;15.10;99.90
1704;DHT22;849;48.780;9.216;2023-01-01T16:22:05;15.10;99.90
1704;DHT22;849;48.780;9.216;2023-01-01T16:24:33;15.00;99.90
1704;DHT22;849;48.780;9.216;2023-01-01T16:26:58;15.00;99.90
1704;DHT22;849;48.780;9.216;2023-01-01T16:29:24;15.10;99.90
1704;DHT22;849;48.780;9.216;2023-01-01T16:31:50;15.10;99.90
1704;DHT22;849;48.780;9.216;2023-01-01T16:34:16;15.00;99.90
1704;DHT22;849;48.780;9.216;2023-01-01T16:36:43;14.90;99.90
1704;DHT22;849;48.780;9.216;2023-01-01T16:39:08;14.80;99.90
1704;DHT22;849;48.780;9.216;2023-01-01T16:41:34;14.70;99.90
1704;DHT22;849;48.780;9.216;2023-01-01T16:44:00;14.80;99.90
1704;DHT22;849;48.780;9.216;2023-01-01T16:46:26;14.70;99.90
1704;DHT22;849;48.780;9.216;2023-01-01T16:48:52;14.60;99.90
1704;DHT22;849;48.780;9.216;2023-01-01T16:51:27;14.50;99.90
1704;DHT22;849;48.780;9.216;2023-01-01T16:53:53;14.50;99.90
1704;DHT22;849;48.780;9.216;2023-01-01T16:56:18;14.50;99.90
1704;DHT22;849;48.780;9.216;2023-01-01T16:58:44;14.50;99.90
1704;DHT22;849;48.780;9.216;2023-01-01T17:01:10;14.50;99.90
1704;DHT22;849;48.780;9.216;2023-01-01T17:03:36;14.50;99.90
1704;DHT22;849;48.780;9.216;2023-01-01T17:06:07;14.30;99.90
1704;DHT22;849;48.780;9.216;2023-01-01T17:08:34;14.40;99.90
1704;DHT22;849;48.780;9.216;2023-01-01T17:11:09;14.30;99.90
1704;DHT22;849;48.780;9.216;2023-01-01T17:13:36;14.30;99.90
1704;DHT22;849;48.780;9.216;2023-01-01T17:16:02;14.10;99.90
1704;DHT22;849;48.780;9.216;2023-01-01T17:18:28;14.10;99.90
1704;DHT22;849;48.780;9.216;2023-01-01T17:20:54;14.10;99.90
1704;DHT22;849;48.780;9.216;2023-01-01T17:23:19;14.10;99.90
1704;DHT22;849;48.780;9.216;2023-01-01T17:25:45;14.20;99.90
1704;DHT22;849;48.780;9.216;2023-01-01T17:28:11;14.20;99.90
1704;DHT22;849;48.780;9.216;2023-01-01T17:30:36;14.30;99.90
1704;DHT22;849;48.780;9.216;2023-01-01T17:33:02;14.30;99.90
1704;DHT22;849;48.780;9.216;2023-01-01T17:35:29;14.10;99.90
1704;DHT22;849;48.780;9.216;2023-01-01T17:37:56;14.10;99.90
1704;DHT22;849;48.780;9.216;2023-01-01T17:40:22;14.10;99.90
1704;DHT22;849;48.780;9.216;2023-01-01T17:42:48;14.10;99.90
1704;DHT22;849;48.780;9.216;2023-01-01T17:45:13;14.00;99.90
1704;DHT22;849;48.780;9.216;2023-01-01T17:47:40;14.00;99.90
1704;DHT22;849;48.780;9.216;2023-01-01T17:50:06;14.00;99.90
1704;DHT22;849;48.780;9.216;2023-01-01T17:52:32;14.00;99.90
1704;DHT22;849;48.780;9.216;2023-01-01T17:54:58;14.00;99.90
1704;DHT22;849;48.780;9.216;2023-01-01T17:57:23;13.90;99.90
1704;DHT22;849;48.780;9.216;2023-01-01T17:59:49;14.00;99.90
1704;DHT22;849;48.780;9.216;2023-01-01T18:02:15;14.00;99.90
1704;DHT22;849;48.780;9.216;2023-01-01T18:04:40;13.80;99.90
1704;DHT22;849;48.780;9.216;2023-01-01T18:07:06;13.70;99.90
1704;DHT22;849;48.780;9.216;2023-01-01T18:09:32;13.60;99.90
1704;DHT22;849;48.780;9.216;2023-01-01T18:11:57;13.50;99.90
1704;DHT22;849;48.780;9.216;2023-01-01T18:14:24;13.30;99.90
1704;DHT22;849;48.780;9.216;2023-01-01T18:16:49;13.20;99.90
1704;DHT22;849;48.780;9.216;2023-01-01T18:19:15;13.10;99.90
1704;DHT22;849;48.780;9.216;2023-01-01T18:21:41;13.20;99.90
1704;DHT22;849;48.780;9.216;2023-01-01T18:24:12;13.20;99.90